AIR2 KLAX-
Flight info
| Callsign | AIR2 |
|---|---|
| Flight time | N/A |
| Altitude | VFR |
| Route | |
| Aircraft |
Departure
| Time | 2026-04-20 02:29 |
|---|---|
| Airport | Los Angeles International Airport (KLAX) |
Arrival
| Time | N/A |
|---|---|
| Airport | - |
| Time | Latitude | Longitude | Altitude | Speed | Heading |
|---|---|---|---|---|---|
| 2026-04-20 02:22 | 33.93383 | -118.39912 | 120 ft | 0 kts | 268° |
| 2026-04-20 02:28 | 33.93295 | -118.40059 | 258 ft | 50 kts | 243° |
| 2026-04-20 02:28 | 33.93143 | -118.40645 | 363 ft | 91 kts | 259° |
| 2026-04-20 02:28 | 33.93026 | -118.41439 | 442 ft | 103 kts | 260° |
| 2026-04-20 02:28 | 33.92903 | -118.42326 | 584 ft | 102 kts | 254° |
| 2026-04-20 02:29 | 33.92690 | -118.43191 | 684 ft | 111 kts | 248° |
| 2026-04-20 02:29 | 33.92084 | -118.43528 | 1049 ft | 106 kts | 180° |
| 2026-04-20 02:29 | 33.91317 | -118.43249 | 1030 ft | 127 kts | 160° |
| 2026-04-20 02:29 | 33.90575 | -118.42805 | 1287 ft | 111 kts | 154° |
| 2026-04-20 02:30 | 33.89835 | -118.42326 | 1240 ft | 124 kts | 154° |
| 2026-04-20 02:30 | 33.89041 | -118.41899 | 1134 ft | 126 kts | 159° |
| 2026-04-20 02:30 | 33.88260 | -118.41448 | 960 ft | 121 kts | 159° |
| 2026-04-20 02:30 | 33.87523 | -118.40997 | 853 ft | 114 kts | 159° |
| 2026-04-20 02:31 | 33.86995 | -118.40534 | 1017 ft | 82 kts | 83° |
| 2026-04-20 02:31 | 33.87384 | -118.40280 | 937 ft | 70 kts | 322° |
| 2026-04-20 02:31 | 33.87462 | -118.40833 | 929 ft | 76 kts | 237° |
| 2026-04-20 02:31 | 33.86909 | -118.40902 | 913 ft | 103 kts | 171° |
| 2026-04-20 02:32 | 33.86242 | -118.40666 | 1034 ft | 102 kts | 164° |
| 2026-04-20 02:32 | 33.85457 | -118.40327 | 930 ft | 134 kts | 165° |
| 2026-04-20 02:32 | 33.84537 | -118.40008 | 833 ft | 139 kts | 167° |
| 2026-04-20 02:32 | 33.83572 | -118.39674 | 830 ft | 147 kts | 167° |
| 2026-04-20 02:33 | 33.82587 | -118.39444 | 972 ft | 145 kts | 174° |
| 2026-04-20 02:33 | 33.81530 | -118.39345 | 827 ft | 153 kts | 186° |
| 2026-04-20 02:33 | 33.80690 | -118.39138 | 1135 ft | 107 kts | 138° |
| 2026-04-20 02:33 | 33.80534 | -118.38302 | 1073 ft | 106 kts | 118° |
| 2026-04-20 02:34 | 33.80174 | -118.38481 | 1111 ft | 58 kts | 261° |
| 2026-04-20 02:34 | 33.80341 | -118.38881 | 1135 ft | 58 kts | 313° |
| 2026-04-20 02:34 | 33.80757 | -118.39141 | 784 ft | 71 kts | 338° |
| 2026-04-20 02:34 | 33.81219 | -118.39198 | 429 ft | 57 kts | 4° |
| 2026-04-20 02:35 | 33.81419 | -118.39168 | 208 ft | 30 kts | 18° |
| 2026-04-20 02:35 | 33.81491 | -118.39153 | 14 ft | 0 kts | 279° |
| 2026-04-20 02:40 | 33.81479 | -118.39190 | 53 ft | 28 kts | 252° |
| 2026-04-20 02:40 | 33.81305 | -118.39571 | 173 ft | 69 kts | 239° |
| 2026-04-20 02:40 | 33.80927 | -118.39999 | 292 ft | 86 kts | 219° |
| 2026-04-20 02:40 | 33.80319 | -118.40287 | 373 ft | 103 kts | 200° |
| 2026-04-20 02:41 | 33.79622 | -118.40479 | 652 ft | 101 kts | 194° |
| 2026-04-20 02:41 | 33.78891 | -118.40490 | 907 ft | 105 kts | 180° |
| 2026-04-20 02:41 | 33.78160 | -118.40361 | 1067 ft | 115 kts | 172° |
| 2026-04-20 02:41 | 33.77291 | -118.40093 | 1123 ft | 143 kts | 168° |
| 2026-04-20 02:42 | 33.76355 | -118.39680 | 1321 ft | 151 kts | 155° |
| 2026-04-20 02:42 | 33.75408 | -118.39058 | 1418 ft | 162 kts | 144° |
| 2026-04-20 02:42 | 33.74670 | -118.37994 | 1090 ft | 174 kts | 124° |
| 2026-04-20 02:42 | 33.74048 | -118.36709 | 581 ft | 182 kts | 122° |
| 2026-04-20 02:43 | 33.73479 | -118.35368 | 470 ft | 178 kts | 120° |
| 2026-04-20 02:43 | 33.73060 | -118.33998 | 560 ft | 176 kts | 106° |
| 2026-04-20 02:43 | 33.72792 | -118.32604 | 700 ft | 171 kts | 98° |
| 2026-04-20 02:43 | 33.72773 | -118.31199 | 821 ft | 173 kts | 82° |
| 2026-04-20 02:44 | 33.72816 | -118.29744 | 874 ft | 171 kts | 85° |
| 2026-04-20 02:44 | 33.72913 | -118.28377 | 653 ft | 152 kts | 86° |
| 2026-04-20 02:44 | 33.72962 | -118.27248 | 680 ft | 110 kts | 84° |
| 2026-04-20 02:44 | 33.73015 | -118.26555 | 954 ft | 71 kts | 82° |
| 2026-04-20 02:45 | 33.73129 | -118.25966 | 985 ft | 96 kts | 69° |
| 2026-04-20 02:45 | 33.73401 | -118.25092 | 861 ft | 123 kts | 69° |
| 2026-04-20 02:45 | 33.73924 | -118.24539 | 781 ft | 116 kts | 0° |
| 2026-04-20 02:45 | 33.74805 | -118.24776 | 371 ft | 135 kts | 343° |
| 2026-04-20 02:46 | 33.75667 | -118.24549 | 454 ft | 128 kts | 20° |
| 2026-04-20 02:46 | 33.76363 | -118.23843 | 407 ft | 148 kts | 65° |
| 2026-04-20 02:46 | 33.76697 | -118.22836 | 410 ft | 117 kts | 70° |
| 2026-04-20 02:46 | 33.76363 | -118.22103 | 481 ft | 110 kts | 137° |
| 2026-04-20 02:47 | 33.75933 | -118.21303 | 421 ft | 118 kts | 105° |
| 2026-04-20 02:47 | 33.75812 | -118.20276 | 690 ft | 138 kts | 84° |
| 2026-04-20 02:47 | 33.76021 | -118.19047 | 613 ft | 163 kts | 72° |
| 2026-04-20 02:47 | 33.75923 | -118.17902 | 629 ft | 102 kts | 167° |
| 2026-04-20 02:48 | 33.75822 | -118.18002 | 728 ft | 1 kts | 256° |
| 2026-04-20 02:48 | 33.75831 | -118.17996 | 784 ft | 6 kts | 311° |
| 2026-04-20 02:48 | 33.76184 | -118.17867 | 228 ft | 105 kts | 41° |
| 2026-04-20 02:48 | 33.76236 | -118.16976 | 71 ft | 122 kts | 101° |
| 2026-04-20 02:49 | 33.76049 | -118.15990 | 74 ft | 117 kts | 106° |
| 2026-04-20 02:49 | 33.75629 | -118.15395 | 241 ft | 87 kts | 171° |
| 2026-04-20 02:49 | 33.75086 | -118.15269 | 23 ft | 61 kts | 175° |
| 2026-04-20 02:49 | 33.74843 | -118.15226 | 19 ft | 16 kts | 177° |
| 2026-04-20 02:50 | 33.74776 | -118.15245 | 120 ft | 7 kts | 37° |
| 2026-04-20 02:50 | 33.74906 | -118.15277 | 137 ft | 45 kts | 302° |
| 2026-04-20 02:50 | 33.74937 | -118.15762 | 276 ft | 79 kts | 263° |
| 2026-04-20 02:50 | 33.74923 | -118.16604 | 260 ft | 122 kts | 274° |
| 2026-04-20 02:51 | 33.75220 | -118.17566 | 517 ft | 123 kts | 289° |
| 2026-04-20 02:51 | 33.75564 | -118.18520 | 645 ft | 130 kts | 302° |
| 2026-04-20 02:51 | 33.76311 | -118.19182 | 716 ft | 134 kts | 326° |
| 2026-04-20 02:51 | 33.77125 | -118.19756 | 812 ft | 137 kts | 323° |
| 2026-04-20 02:52 | 33.77924 | -118.20420 | 899 ft | 140 kts | 319° |
| 2026-04-20 02:52 | 33.78674 | -118.21193 | 909 ft | 132 kts | 312° |
| 2026-04-20 02:52 | 33.79280 | -118.21923 | 1281 ft | 122 kts | 308° |
| 2026-04-20 02:52 | 33.79831 | -118.22747 | 1353 ft | 135 kts | 302° |
| 2026-04-20 02:53 | 33.80423 | -118.23679 | 1392 ft | 143 kts | 308° |
| 2026-04-20 02:53 | 33.81158 | -118.24551 | 1361 ft | 150 kts | 312° |
| 2026-04-20 02:53 | 33.81963 | -118.25363 | 1345 ft | 155 kts | 316° |
| 2026-04-20 02:53 | 33.82798 | -118.26243 | 1105 ft | 162 kts | 314° |
| 2026-04-20 02:54 | 33.83695 | -118.27024 | 727 ft | 156 kts | 334° |
| 2026-04-20 02:54 | 33.84647 | -118.27283 | 628 ft | 124 kts | 7° |
| 2026-04-20 02:54 | 33.85085 | -118.26580 | 732 ft | 108 kts | 102° |
| 2026-04-20 02:54 | 33.84582 | -118.26194 | 808 ft | 90 kts | 197° |
| 2026-04-20 02:55 | 33.84231 | -118.26711 | 807 ft | 89 kts | 279° |
| 2026-04-20 02:55 | 33.84351 | -118.27396 | 847 ft | 88 kts | 244° |
| 2026-04-20 02:55 | 33.83768 | -118.27524 | 934 ft | 99 kts | 160° |
| 2026-04-20 02:55 | 33.83534 | -118.26786 | 994 ft | 100 kts | 79° |
| 2026-04-20 02:56 | 33.84031 | -118.26422 | 1073 ft | 88 kts | 341° |
| 2026-04-20 02:56 | 33.84331 | -118.26997 | 1061 ft | 90 kts | 272° |
| 2026-04-20 02:56 | 33.84006 | -118.27555 | 804 ft | 104 kts | 201° |
| 2026-04-20 02:56 | 33.83509 | -118.27298 | 1208 ft | 80 kts | 130° |
| 2026-04-20 02:57 | 33.83194 | -118.26955 | 1380 ft | 61 kts | 230° |
| 2026-04-20 02:57 | 33.83137 | -118.27483 | 1485 ft | 77 kts | 296° |
| 2026-04-20 02:57 | 33.83601 | -118.27964 | 1471 ft | 97 kts | 312° |
| 2026-04-20 02:57 | 33.84048 | -118.28638 | 1327 ft | 108 kts | 299° |
| 2026-04-20 02:58 | 33.84543 | -118.29343 | 1285 ft | 116 kts | 307° |
| 2026-04-20 02:58 | 33.85140 | -118.30146 | 1336 ft | 131 kts | 304° |
| 2026-04-20 02:58 | 33.85734 | -118.31072 | 1297 ft | 147 kts | 304° |
| 2026-04-20 02:58 | 33.86354 | -118.31959 | 1134 ft | 126 kts | 310° |
| 2026-04-20 02:59 | 33.86972 | -118.32664 | 909 ft | 121 kts | 315° |
| 2026-04-20 02:59 | 33.87570 | -118.33265 | 869 ft | 101 kts | 317° |
| 2026-04-20 02:59 | 33.88072 | -118.33705 | 1022 ft | 87 kts | 318° |
| 2026-04-20 02:59 | 33.88471 | -118.34144 | 1245 ft | 66 kts | 315° |
| 2026-04-20 03:00 | 33.88784 | -118.34424 | 1330 ft | 52 kts | 321° |
| 2026-04-20 03:00 | 33.89073 | -118.34622 | 1371 ft | 42 kts | 327° |
| 2026-04-20 03:00 | 33.89275 | -118.34958 | 1364 ft | 53 kts | 296° |
| 2026-04-20 03:00 | 33.89485 | -118.35371 | 1375 ft | 68 kts | 300° |
| 2026-04-20 03:01 | 33.89627 | -118.36006 | 1194 ft | 92 kts | 280° |
| 2026-04-20 03:01 | 33.89711 | -118.36735 | 1168 ft | 87 kts | 274° |
| 2026-04-20 03:01 | 33.89810 | -118.37494 | 1001 ft | 90 kts | 300° |
| 2026-04-20 03:01 | 33.90181 | -118.37976 | 959 ft | 71 kts | 307° |
| 2026-04-20 03:02 | 33.90464 | -118.38367 | 866 ft | 43 kts | 314° |
| 2026-04-20 03:02 | 33.90581 | -118.38480 | 902 ft | 16 kts | 320° |
| 2026-04-20 03:02 | 33.90725 | -118.38485 | 975 ft | 18 kts | 7° |
| 2026-04-20 03:02 | 33.90779 | -118.38494 | 1002 ft | 13 kts | 301° |
| 2026-04-20 03:03 | 33.91032 | -118.38646 | 835 ft | 75 kts | 338° |
| 2026-04-20 03:03 | 33.91459 | -118.38847 | 953 ft | 69 kts | 326° |
| 2026-04-20 03:03 | 33.91891 | -118.39120 | 999 ft | 65 kts | 334° |
| 2026-04-20 03:03 | 33.92256 | -118.39236 | 842 ft | 45 kts | 353° |
| 2026-04-20 03:04 | 33.92557 | -118.39268 | 611 ft | 47 kts | 351° |
| 2026-04-20 03:04 | 33.92899 | -118.39277 | 477 ft | 53 kts | 356° |
| 2026-04-20 03:04 | 33.93234 | -118.39254 | 336 ft | 35 kts | 335° |
| 2026-04-20 03:04 | 33.93393 | -118.39359 | 197 ft | 12 kts | 1° |
| 2026-04-20 03:05 | 33.93407 | -118.39339 | 120 ft | 0 kts | 131° |